Columbia — WYR2092 — position and weather

sailwx.info

Track history (hours):
 
Tides and Currents Weather Stations Pressure Air Temp Water Temp Dewpoint Dewpoint Depression Visibility Wind Speed Wind Dir Waves Ship Positions

Columbia

Owner: ALASKA, STATE OF, ANCHORAGE, AK. More information available from US FCC via Universal Licensing System and Coast Guard Vessel Documentation Center.

Last reported at 2015-Jul-28 12:33 UTC. Time now 2015-Jul-29 15:57 UTC.
Position N 58°04' W 134°55'.

Type: Ship. MMSI: 367144000.

Date/timePositionNaut miles runAvg speedWind from/ knotsBaromVisibWave heightAir tempDewpointWater temp
2015-Jul-28 12:33N 58°04' W 134°55'1818.1
2015-Jul-28 11:33N 58°22' W 134°60'10 9.7
2015-Jul-28 10:32N 58°23' W 134°41'0 0.1
2015-Jul-28 07:33N 58°23' W 134°41'10 9.8
2015-Jul-28 06:33N 58°30' W 134°54'1818.5
2015-Jul-28 05:33N 58°47' W 135°08'29 1.9
2015-Jul-27 14:33N 58°21' W 134°43'2 2.0
2015-Jul-27 13:28N 58°23' W 134°41'0 0.0
2015-Jul-27 12:23N 58°23' W 134°41'2 2.4
2015-Jul-27 11:33N 58°21' W 134°41'1712.2
2015-Jul-27 10:12N 58°11' W 134°16'914.0
2015-Jul-27 09:33N 58°04' W 134°04'44812.1
2015-Jul-25 20:33N 51°31' W 127°52'1716.7
2015-Jul-25 19:33N 51°14' W 127°52'1717.1
2015-Jul-25 18:33N 51°01' W 127°36'1817.6
2015-Jul-25 17:33N 50°50' W 127°13'7717.5
2015-Jul-25 13:11N 50°17' W 125°24'1218.8
2015-Jul-25 12:33N 50°06' W 125°18'1817.9
2015-Jul-25 11:33N 49°52' W 125°01'1919.0
2015-Jul-25 10:34N 49°39' W 124°40'1918.8
2015-Jul-25 09:33N 49°26' W 124°19'1918.8
2015-Jul-25 08:34N 49°19' W 123°52'1918.8
2015-Jul-25 07:33N 49°09' W 123°28'1919.2
2015-Jul-25 06:34N 48°55' W 123°06'1919.0
2015-Jul-25 05:33N 48°43' W 122°44'9 1.1
2015-Jul-24 21:33N 48°43' W 122°31'8 7.9
2015-Jul-24 20:33N 48°39' W 122°40'1818.1
2015-Jul-24 19:34N 48°51' W 123°01'1918.7
2015-Jul-24 18:34N 49°03' W 123°23'1818.2
2015-Jul-24 17:33N 49°14' W 123°45'1918.6
2015-Jul-24 16:33N 49°23' W 124°10'1818.1
2015-Jul-24 15:34N 49°34' W 124°32'1918.7
2015-Jul-24 14:33N 49°47' W 124°53'1918.2
2015-Jul-24 13:31N 50°01' W 125°13'8015.3
2015-Jul-24 08:18N 50°44' W 126°58'1318.2
2015-Jul-24 07:33N 50°51' W 127°16'1717.4
2015-Jul-24 06:33N 51°02' W 127°38'1717.3
2015-Jul-24 05:33N 51°17' W 127°53'42213.1
2015-Jul-22 21:19N 57°27' W 133°41'1316.5
2015-Jul-22 20:34N 57°39' W 133°46'1917.4
2015-Jul-22 19:29N 57°56' W 133°57'18 0.7
2015-Jul-21 19:33N 57°40' W 133°46'1818.1
2015-Jul-21 18:33N 57°22' W 133°39'40713.5
2015-Jul-20 12:30N 51°29' W 127°51'1718.3
2015-Jul-20 11:33N 51°12' W 127°51'1818.0
2015-Jul-20 10:34N 50°58' W 127°31'1918.5
2015-Jul-20 09:33N 50°48' W 127°07'7418.4
2015-Jul-20 05:33N 50°15' W 125°23'1818.2
2015-Jul-20 04:33N 49°59' W 125°11'1918.7
2015-Jul-20 03:33N 49°47' W 124°48'1918.9
2015-Jul-20 02:33N 49°36' W 124°25'1918.8
2015-Jul-20 01:33N 49°25' W 124°01'1918.8
2015-Jul-20 00:33N 49°14' W 123°39'1918.6
2015-Jul-19 23:33N 49°02' W 123°17'1919.1
2015-Jul-19 22:34N 48°49' W 122°55'1516.6
2015-Jul-19 21:38N 48°39' W 122°38'118.0
2015-Jul-19 21:33N 48°38' W 122°36'6 6.1
2015-Jul-19 20:32N 48°43' W 122°31'0 0.0
2015-Jul-19 18:32N 48°43' W 122°31'0 0.0
2015-Jul-19 14:32N 48°43' W 122°31'4 3.8
2015-Jul-19 13:33N 48°40' W 122°33'1615.6
2015-Jul-19 12:33N 48°48' W 122°54'2019.9
2015-Jul-19 11:34N 48°60' W 123°18'2019.9
2015-Jul-19 10:33N 49°13' W 123°41'2020.4
2015-Jul-19 09:33N 49°22' W 124°09'2020.0
2015-Jul-19 08:33N 49°35' W 124°33'2019.6
2015-Jul-19 07:32N 49°48' W 124°55'1717.5
2015-Jul-19 06:33N 50°01' W 125°13'1312.7
2015-Jul-19 05:33N 50°13' W 125°22'8517.0
2015-Jul-19 00:33N 50°53' W 127°20'1818.4
2015-Jul-18 23:33N 51°05' W 127°42'2417.2
2015-Jul-18 22:10N 51°28' W 127°50'  
Track history (hours):
 
Tides and Currents Weather Stations Pressure Air Temp Water Temp Dewpoint Dewpoint Depression Visibility Wind Speed Wind Dir Waves Ship Positions

Columbia

Owner: ALASKA, STATE OF, ANCHORAGE, AK. More information available from US FCC via Universal Licensing System and Coast Guard Vessel Documentation Center.

Last reported at 2015-Jul-28 12:33 UTC. Time now 2015-Jul-29 15:57 UTC.
Position N 58°04' W 134°55'.

Type: Ship. MMSI: 367144000.

Date/timePositionNaut miles runAvg speedWind from/ knotsBaromVisibWave heightAir tempDewpointWater temp
2015-Jul-28 12:33N 58°04' W 134°55'1818.1
2015-Jul-28 11:33N 58°22' W 134°60'10 9.7
2015-Jul-28 10:32N 58°23' W 134°41'0 0.1
2015-Jul-28 07:33N 58°23' W 134°41'10 9.8
2015-Jul-28 06:33N 58°30' W 134°54'1818.5
2015-Jul-28 05:33N 58°47' W 135°08'29 1.9
2015-Jul-27 14:33N 58°21' W 134°43'2 2.0
2015-Jul-27 13:28N 58°23' W 134°41'0 0.0
2015-Jul-27 12:23N 58°23' W 134°41'2 2.4
2015-Jul-27 11:33N 58°21' W 134°41'1712.2
2015-Jul-27 10:12N 58°11' W 134°16'914.0
2015-Jul-27 09:33N 58°04' W 134°04'44812.1
2015-Jul-25 20:33N 51°31' W 127°52'1716.7
2015-Jul-25 19:33N 51°14' W 127°52'1717.1
2015-Jul-25 18:33N 51°01' W 127°36'1817.6
2015-Jul-25 17:33N 50°50' W 127°13'7717.5
2015-Jul-25 13:11N 50°17' W 125°24'1218.8
2015-Jul-25 12:33N 50°06' W 125°18'1817.9
2015-Jul-25 11:33N 49°52' W 125°01'1919.0
2015-Jul-25 10:34N 49°39' W 124°40'1918.8
2015-Jul-25 09:33N 49°26' W 124°19'1918.8
2015-Jul-25 08:34N 49°19' W 123°52'1918.8
2015-Jul-25 07:33N 49°09' W 123°28'1919.2
2015-Jul-25 06:34N 48°55' W 123°06'1919.0
2015-Jul-25 05:33N 48°43' W 122°44'9 1.1
2015-Jul-24 21:33N 48°43' W 122°31'8 7.9
2015-Jul-24 20:33N 48°39' W 122°40'1818.1
2015-Jul-24 19:34N 48°51' W 123°01'1918.7
2015-Jul-24 18:34N 49°03' W 123°23'1818.2
2015-Jul-24 17:33N 49°14' W 123°45'1918.6
2015-Jul-24 16:33N 49°23' W 124°10'1818.1
2015-Jul-24 15:34N 49°34' W 124°32'1918.7
2015-Jul-24 14:33N 49°47' W 124°53'1918.2
2015-Jul-24 13:31N 50°01' W 125°13'8015.3
2015-Jul-24 08:18N 50°44' W 126°58'1318.2
2015-Jul-24 07:33N 50°51' W 127°16'1717.4
2015-Jul-24 06:33N 51°02' W 127°38'1717.3
2015-Jul-24 05:33N 51°17' W 127°53'42213.1
2015-Jul-22 21:19N 57°27' W 133°41'1316.5
2015-Jul-22 20:34N 57°39' W 133°46'1917.4
2015-Jul-22 19:29N 57°56' W 133°57'18 0.7
2015-Jul-21 19:33N 57°40' W 133°46'1818.1
2015-Jul-21 18:33N 57°22' W 133°39'40713.5
2015-Jul-20 12:30N 51°29' W 127°51'1718.3
2015-Jul-20 11:33N 51°12' W 127°51'1818.0
2015-Jul-20 10:34N 50°58' W 127°31'1918.5
2015-Jul-20 09:33N 50°48' W 127°07'7418.4
2015-Jul-20 05:33N 50°15' W 125°23'1818.2
2015-Jul-20 04:33N 49°59' W 125°11'1918.7
2015-Jul-20 03:33N 49°47' W 124°48'1918.9
2015-Jul-20 02:33N 49°36' W 124°25'1918.8
2015-Jul-20 01:33N 49°25' W 124°01'1918.8
2015-Jul-20 00:33N 49°14' W 123°39'1918.6
2015-Jul-19 23:33N 49°02' W 123°17'1919.1
2015-Jul-19 22:34N 48°49' W 122°55'1516.6
2015-Jul-19 21:38N 48°39' W 122°38'118.0
2015-Jul-19 21:33N 48°38' W 122°36'6 6.1
2015-Jul-19 20:32N 48°43' W 122°31'0 0.0
2015-Jul-19 18:32N 48°43' W 122°31'0 0.0
2015-Jul-19 14:32N 48°43' W 122°31'4 3.8
2015-Jul-19 13:33N 48°40' W 122°33'1615.6
2015-Jul-19 12:33N 48°48' W 122°54'2019.9
2015-Jul-19 11:34N 48°60' W 123°18'2019.9
2015-Jul-19 10:33N 49°13' W 123°41'2020.4
2015-Jul-19 09:33N 49°22' W 124°09'2020.0
2015-Jul-19 08:33N 49°35' W 124°33'2019.6
2015-Jul-19 07:32N 49°48' W 124°55'1717.5
2015-Jul-19 06:33N 50°01' W 125°13'1312.7
2015-Jul-19 05:33N 50°13' W 125°22'8517.0
2015-Jul-19 00:33N 50°53' W 127°20'1818.4
2015-Jul-18 23:33N 51°05' W 127°42'2417.2
2015-Jul-18 22:10N 51°28' W 127°50'  

Dump ship's entire track history